KKK312 LTAU-LTAC
Flight info
| Callsign | KKK312 |
|---|---|
| Flight time | N/A |
| Altitude | 26000 |
| Route | KISLA1C/25 KISLA UL605 BELSU UA17 YUCEL |
| Aircraft | A321/M-SDE3FGHIRWY/LB1 |
Departure
| Time | 2026-04-23 19:12 |
|---|---|
| Airport | Kayseri Erkilet International Airport (LTAU) |
Arrival
| Time | N/A |
|---|---|
| Airport | Esenboğa International Airport (LTAC) |
| Time | Latitude | Longitude | Altitude | Speed | Heading |
|---|---|---|---|---|---|
| 2026-04-23 19:00 | 38.77326 | 35.48490 | 3518 ft | 3 kts | 347° |
| 2026-04-23 19:00 | 38.77306 | 35.48496 | 3518 ft | 3 kts | 347° |
| 2026-04-23 19:00 | 38.77293 | 35.48500 | 3518 ft | 0 kts | 347° |
| 2026-04-23 19:01 | 38.77294 | 35.48500 | 3518 ft | 0 kts | 347° |
| 2026-04-23 19:04 | 38.77293 | 35.48500 | 3518 ft | 1 kts | 347° |
| 2026-04-23 19:04 | 38.77282 | 35.48504 | 3518 ft | 2 kts | 347° |
| 2026-04-23 19:04 | 38.77264 | 35.48509 | 3518 ft | 3 kts | 347° |
| 2026-04-23 19:05 | 38.77245 | 35.48515 | 3518 ft | 3 kts | 347° |
| 2026-04-23 19:05 | 38.77225 | 35.48521 | 3518 ft | 3 kts | 347° |
| 2026-04-23 19:05 | 38.77204 | 35.48527 | 3518 ft | 3 kts | 347° |
| 2026-04-23 19:05 | 38.77185 | 35.48533 | 3518 ft | 3 kts | 347° |
| 2026-04-23 19:06 | 38.77164 | 35.48539 | 3518 ft | 3 kts | 347° |
| 2026-04-23 19:06 | 38.77144 | 35.48545 | 3518 ft | 3 kts | 347° |
| 2026-04-23 19:06 | 38.77133 | 35.48548 | 3518 ft | 0 kts | 347° |
| 2026-04-23 19:07 | 38.77145 | 35.48530 | 3518 ft | 6 kts | 279° |
| 2026-04-23 19:07 | 38.77081 | 35.48523 | 3518 ft | 23 kts | 146° |
| 2026-04-23 19:07 | 38.77056 | 35.48621 | 3518 ft | 0 kts | 75° |
| 2026-04-23 19:08 | 38.77058 | 35.48708 | 3518 ft | 37 kts | 84° |
| 2026-04-23 19:08 | 38.77155 | 35.49237 | 3518 ft | 72 kts | 76° |
| 2026-04-23 19:08 | 38.77265 | 35.49836 | 3518 ft | 66 kts | 77° |
| 2026-04-23 19:08 | 38.77364 | 35.50365 | 3518 ft | 59 kts | 77° |
| 2026-04-23 19:09 | 38.77454 | 35.50851 | 3518 ft | 50 kts | 76° |
| 2026-04-23 19:09 | 38.77483 | 35.51144 | 3518 ft | 14 kts | 149° |
| 2026-04-23 19:09 | 38.77429 | 35.51165 | 3518 ft | 0 kts | 167° |
| 2026-04-23 19:10 | 38.77420 | 35.51167 | 3518 ft | 13 kts | 167° |
| 2026-04-23 19:10 | 38.77353 | 35.51163 | 3518 ft | 1 kts | 240° |
| 2026-04-23 19:10 | 38.77341 | 35.51133 | 3518 ft | 0 kts | 249° |
| 2026-04-23 19:10 | 38.77339 | 35.51128 | 3518 ft | 7 kts | 252° |
| 2026-04-23 19:11 | 38.77270 | 35.50765 | 3518 ft | 76 kts | 256° |
| 2026-04-23 19:11 | 38.77128 | 35.50020 | 3518 ft | 127 kts | 257° |
| 2026-04-23 19:11 | 38.77051 | 35.49609 | 3518 ft | 146 kts | 256° |
| 2026-04-23 19:11 | 38.76783 | 35.48169 | 3608 ft | 182 kts | 257° |
| 2026-04-23 19:12 | 38.76608 | 35.47056 | 3825 ft | 198 kts | 259° |
| 2026-04-23 19:12 | 38.76314 | 35.44532 | 4375 ft | 231 kts | 261° |
| 2026-04-23 19:12 | 38.75942 | 35.42461 | 4761 ft | 247 kts | 256° |
| 2026-04-23 19:12 | 38.75525 | 35.40275 | 5137 ft | 257 kts | 260° |
| 2026-04-23 19:13 | 38.75598 | 35.37958 | 5532 ft | 261 kts | 278° |
| 2026-04-23 19:13 | 38.76034 | 35.35677 | 5920 ft | 265 kts | 286° |
| 2026-04-23 19:13 | 38.76626 | 35.33469 | 6293 ft | 266 kts | 290° |
| 2026-04-23 19:13 | 38.77303 | 35.31263 | 6668 ft | 267 kts | 292° |
| 2026-04-23 19:14 | 38.78031 | 35.29047 | 7070 ft | 264 kts | 291° |
| 2026-04-23 19:14 | 38.78749 | 35.26923 | 7436 ft | 260 kts | 292° |
| 2026-04-23 19:14 | 38.79478 | 35.24793 | 7810 ft | 258 kts | 292° |
| 2026-04-23 19:14 | 38.80195 | 35.22717 | 8179 ft | 257 kts | 292° |
| 2026-04-23 19:15 | 38.80920 | 35.20624 | 8552 ft | 257 kts | 292° |
| 2026-04-23 19:15 | 38.81647 | 35.18532 | 8926 ft | 258 kts | 292° |
| 2026-04-23 19:15 | 38.82339 | 35.16541 | 9281 ft | 259 kts | 292° |
| 2026-04-23 19:15 | 38.83077 | 35.14420 | 9607 ft | 263 kts | 292° |
| 2026-04-23 19:16 | 38.83847 | 35.12207 | 10007 ft | 281 kts | 292° |
| 2026-04-23 19:16 | 38.84660 | 35.09863 | 10400 ft | 299 kts | 292° |
| 2026-04-23 19:16 | 38.85516 | 35.07399 | 10784 ft | 310 kts | 292° |
| 2026-04-23 19:17 | 38.87315 | 35.02231 | 11548 ft | 320 kts | 292° |
| 2026-04-23 19:17 | 38.88254 | 34.99528 | 11946 ft | 343 kts | 292° |
| 2026-04-23 19:17 | 38.89203 | 34.96790 | 12372 ft | 367 kts | 292° |
| 2026-04-23 19:17 | 38.90337 | 34.93516 | 12875 ft | 394 kts | 292° |
| 2026-04-23 19:18 | 38.91474 | 34.90229 | 13367 ft | 418 kts | 292° |
| 2026-04-23 19:18 | 38.92690 | 34.86716 | 13884 ft | 432 kts | 293° |
| 2026-04-23 19:18 | 38.93913 | 34.83185 | 14400 ft | 440 kts | 292° |
| 2026-04-23 19:18 | 38.95167 | 34.79562 | 14905 ft | 442 kts | 292° |
| 2026-04-23 19:19 | 38.97659 | 34.72356 | 15899 ft | 444 kts | 292° |
| 2026-04-23 19:19 | 38.98907 | 34.68740 | 16396 ft | 445 kts | 292° |
| 2026-04-23 19:20 | 39.01418 | 34.61444 | 17395 ft | 444 kts | 292° |
| 2026-04-23 19:20 | 39.02654 | 34.57841 | 17888 ft | 444 kts | 292° |
| 2026-04-23 19:20 | 39.03907 | 34.54186 | 18389 ft | 443 kts | 292° |
| 2026-04-23 19:20 | 39.05132 | 34.50604 | 18881 ft | 442 kts | 292° |
| 2026-04-23 19:21 | 39.06373 | 34.46970 | 19380 ft | 441 kts | 292° |
| 2026-04-23 19:21 | 39.08823 | 34.39772 | 20372 ft | 439 kts | 292° |
| 2026-04-23 19:21 | 39.09946 | 34.36505 | 20824 ft | 438 kts | 293° |
| 2026-04-23 19:22 | 39.11242 | 34.32960 | 21321 ft | 440 kts | 295° |
| 2026-04-23 19:22 | 39.12778 | 34.29535 | 21826 ft | 442 kts | 301° |
| 2026-04-23 19:22 | 39.16370 | 34.23162 | 23028 ft | 441 kts | 306° |
| 2026-04-23 19:23 | 39.18321 | 34.20063 | 23657 ft | 441 kts | 307° |
| 2026-04-23 19:23 | 39.20296 | 34.17026 | 23960 ft | 447 kts | 308° |
| 2026-04-23 19:23 | 39.22309 | 34.13978 | 23999 ft | 448 kts | 308° |
| 2026-04-23 19:24 | 39.26345 | 34.07916 | 23996 ft | 445 kts | 308° |
| 2026-04-23 19:24 | 39.28367 | 34.04875 | 23995 ft | 443 kts | 308° |
| 2026-04-23 19:24 | 39.32204 | 33.99062 | 23995 ft | 442 kts | 308° |
| 2026-04-23 19:25 | 39.36158 | 33.93009 | 23710 ft | 445 kts | 308° |
| 2026-04-23 19:25 | 39.40137 | 33.86859 | 22981 ft | 446 kts | 308° |
| 2026-04-23 19:26 | 39.44105 | 33.80673 | 22232 ft | 445 kts | 307° |
| 2026-04-23 19:26 | 39.46064 | 33.77583 | 21858 ft | 444 kts | 307° |
| 2026-04-23 19:27 | 39.49948 | 33.71385 | 21112 ft | 444 kts | 307° |
| 2026-04-23 19:27 | 39.55575 | 33.62271 | 20021 ft | 444 kts | 305° |
| 2026-04-23 19:28 | 39.57787 | 33.54979 | 19999 ft | 437 kts | 280° |
| 2026-04-23 19:28 | 39.58137 | 33.47110 | 20001 ft | 441 kts | 269° |
| 2026-04-23 19:29 | 39.57964 | 33.43195 | 19999 ft | 442 kts | 266° |
| 2026-04-23 19:29 | 39.57365 | 33.35224 | 19990 ft | 442 kts | 268° |
| 2026-04-23 19:30 | 39.58676 | 33.27452 | 19998 ft | 447 kts | 293° |
| 2026-04-23 19:30 | 39.60200 | 33.23951 | 20003 ft | 449 kts | 301° |
| 2026-04-23 19:30 | 39.63411 | 33.18613 | 19999 ft | 450 kts | 309° |
| 2026-04-23 19:31 | 39.65494 | 33.15608 | 19998 ft | 450 kts | 309° |
| 2026-04-23 19:31 | 39.68203 | 33.11506 | 19996 ft | 449 kts | 308° |
| 2026-04-23 19:31 | 39.70147 | 33.08402 | 19996 ft | 448 kts | 307° |
| 2026-04-23 19:31 | 39.71454 | 33.06237 | 19996 ft | 448 kts | 306° |
| 2026-04-23 19:32 | 39.73275 | 33.02984 | 19987 ft | 446 kts | 300° |
| 2026-04-23 19:32 | 39.74402 | 32.99240 | 19983 ft | 444 kts | 282° |
| 2026-04-23 19:32 | 39.74511 | 32.95227 | 19993 ft | 446 kts | 264° |
| 2026-04-23 19:32 | 39.73602 | 32.91388 | 19997 ft | 450 kts | 246° |
| 2026-04-23 19:33 | 39.71759 | 32.88095 | 19997 ft | 456 kts | 228° |
| 2026-04-23 19:33 | 39.69171 | 32.85717 | 19997 ft | 463 kts | 210° |
| 2026-04-23 19:33 | 39.62776 | 32.84448 | 20017 ft | 475 kts | 180° |
| 2026-04-23 19:34 | 39.59784 | 32.84289 | 19993 ft | 469 kts | 192° |
| 2026-04-23 19:34 | 39.56724 | 32.82921 | 19990 ft | 461 kts | 210° |
| 2026-04-23 19:34 | 39.52580 | 32.77215 | 19988 ft | 422 kts | 246° |
| 2026-04-23 19:35 | 39.51924 | 32.73607 | 19985 ft | 399 kts | 267° |
| 2026-04-23 19:35 | 39.52308 | 32.70188 | 19984 ft | 381 kts | 287° |
| 2026-04-23 19:35 | 39.53644 | 32.67295 | 19983 ft | 365 kts | 309° |
| 2026-04-23 19:35 | 39.55669 | 32.65431 | 19983 ft | 353 kts | 333° |
| 2026-04-23 19:36 | 39.57994 | 32.64837 | 19982 ft | 344 kts | 356° |
| 2026-04-23 19:36 | 39.60293 | 32.65569 | 19981 ft | 337 kts | 22° |
| 2026-04-23 19:36 | 39.62180 | 32.67379 | 19999 ft | 337 kts | 40° |
| 2026-04-23 19:36 | 39.63713 | 32.69664 | 20005 ft | 341 kts | 50° |
| 2026-04-23 19:37 | 39.65114 | 32.72214 | 20004 ft | 345 kts | 51° |
| 2026-04-23 19:37 | 39.66590 | 32.74648 | 20000 ft | 347 kts | 47° |
| 2026-04-23 19:37 | 39.68094 | 32.76796 | 19999 ft | 347 kts | 43° |
| 2026-04-23 19:37 | 39.69832 | 32.78962 | 19998 ft | 346 kts | 39° |
| 2026-04-23 19:38 | 39.71676 | 32.80987 | 19998 ft | 346 kts | 35° |
| 2026-04-23 19:38 | 39.73458 | 32.82765 | 19997 ft | 346 kts | 33° |
| 2026-04-23 19:38 | 39.75414 | 32.84613 | 19997 ft | 345 kts | 32° |
| 2026-04-23 19:38 | 39.77361 | 32.86400 | 19996 ft | 345 kts | 31° |
| 2026-04-23 19:39 | 39.79334 | 32.88197 | 19996 ft | 345 kts | 31° |
| 2026-04-23 19:39 | 39.81297 | 32.90004 | 19996 ft | 345 kts | 32° |
| 2026-04-23 19:39 | 39.83251 | 32.91824 | 19996 ft | 346 kts | 32° |
| 2026-04-23 19:39 | 39.85211 | 32.93666 | 19996 ft | 346 kts | 32° |
| 2026-04-23 19:40 | 39.87136 | 32.95485 | 19996 ft | 345 kts | 32° |
| 2026-04-23 19:40 | 39.89237 | 32.97011 | 19992 ft | 340 kts | 19° |
| 2026-04-23 19:40 | 39.91450 | 32.97953 | 19999 ft | 337 kts | 10° |
| 2026-04-23 19:40 | 39.93750 | 32.98542 | 19999 ft | 335 kts | 4° |
| 2026-04-23 19:41 | 39.96044 | 32.98892 | 19998 ft | 334 kts | 1° |
| 2026-04-23 19:41 | 39.98096 | 32.99087 | 19997 ft | 333 kts | 0° |
| 2026-04-23 19:41 | 40.00355 | 32.99819 | 19980 ft | 341 kts | 22° |
| 2026-04-23 19:41 | 40.02247 | 33.01782 | 19989 ft | 350 kts | 48° |
| 2026-04-23 19:42 | 40.03362 | 33.04625 | 19995 ft | 356 kts | 73° |
| 2026-04-23 19:42 | 40.03501 | 33.07835 | 19997 ft | 357 kts | 99° |
| 2026-04-23 19:42 | 40.02648 | 33.10819 | 19997 ft | 354 kts | 124° |
| 2026-04-23 19:42 | 40.00953 | 33.13104 | 20003 ft | 347 kts | 147° |
| 2026-04-23 19:43 | 39.98879 | 33.14668 | 20012 ft | 345 kts | 158° |
| 2026-04-23 19:43 | 39.96670 | 33.15940 | 20004 ft | 343 kts | 161° |
| 2026-04-23 19:43 | 39.94458 | 33.17088 | 19998 ft | 342 kts | 162° |
| 2026-04-23 19:43 | 39.92196 | 33.18243 | 19996 ft | 341 kts | 162° |
| 2026-04-23 19:44 | 39.90229 | 33.19269 | 19995 ft | 341 kts | 162° |